Anastasia Island, Florida
Current Conditions -  °F | °C
As of 9:58 AM on Thursday 23 Oct 2014 (Local Time) from KSGJ Reporting Station
Clear Clear  
Wind Chill: 71°   Ceiling: Unl
Heat Index: 71°   Visibility: 10mi
Dew Point: 53°   Wind: 12mph
Humidity: 53%   Direction: 50°NE
Pressure: 30.07"   Gusts: NA
Location:  29.8475°N, 81.2787°W
Report Text: KSGJ 231358Z 05010KT 10SM CLR 22/12 A3007 RMK AO2 WSHFT 1306 SLP181 T02170117
Loading
Personal Weather Stations






























Interactive Weather Map New forecast layout! Learn more

10-Day Weather Forecast

Advertisements
Track Severe Weather on mobile